Kentuck, West Virginia
Current Conditions -  °F | °C
As of 5:54 AM on Friday 28 Nov 2014 (Local Time) from KCRW Reporting Station
Light Snow Light Snow  
Wind Chill: 28°   Ceiling: 3200
Heat Index: 28°   Visibility: 8mi
Dew Point: 17°   Wind: 3mph
Humidity: 63%   Direction: NA
Pressure: 30.36"   Gusts: NA
Location:  38.6436°N, 81.6226°W
Report Text: KCRW 281054Z VRB03KT 8SM -SN BKN032 OVC050 M02/M08 A3036 RMK AO2 SLP292 PCPN VRY LGT P0000 T10221083
Loading
Personal Weather Stations






























Interactive Weather Map New forecast layout! Learn more

10-Day Weather Forecast

Advertisements
Track Severe Weather on mobile